Weather observations for the past three days for
El Dorado Captain Jack Thomas Airport
Metric (Imperial)
Date Time (cdt) Wind (kph) Vis. (km) Weather Sky Cond. Temperature (ºC) Relative Humidity Wind Chill (°C) Heat Index (°C) Pressure Precipitation (cm)
Air Dwpt 6 hour altimeter (cm) sea level (mb) 1 hr 3 hr 6 hr
Max. Min.
02 14:15 NW 11 16.09 Fair CLR 19 0 28% 76.61 0.0
02 13:55 NW 13 16.09 Fair CLR 18 0 30% 76.61 0.0
02 13:35 NW 17 16.09 Fair CLR 18 0 30% 76.63 0.0
02 13:15 Calm 16.09 Fair CLR 18 0 30% 76.63 0.0
02 12:55 NE 11 16.09 Fair CLR 17 -1 30% 76.66 0.0
02 12:35 NE 7 16.09 Fair CLR 17 0 32% 76.66 0.0
02 12:15 N 6 16.09 Fair CLR 16 -2 29% 76.68 0.0
02 11:55 N 15 16.09 Fair CLR 17 -1 30% 76.71 0.0
02 11:35 N 13 16.09 Fair CLR 16 -2 29% 76.71 0.0
02 11:15 N 15 16.09 Fair CLR 16 0 34% 76.71 0.0
02 10:55 NE 7 16.09 Fair CLR 16 -1 31% 76.71 0.0
02 10:35 N 13 16.09 Fair CLR 16 0 34% 76.71 0.0
02 10:15 NE 13 16.09 Fair CLR 15 -1 34% 76.73 0.0
02 09:55 N 11 16.09 Fair CLR 15 0 36% 76.71 0.0
02 09:35 NE 9 16.09 Fair CLR 13 0 41% 76.71 0.0
02 09:15 E 6 16.09 Fair CLR 12 0 44% 76.71 0.0
02 08:55 NE 7 16.09 Fair CLR 11 2 54% 76.71 0.0
02 08:35 NE 9 16.09 Fair CLR 10 1 54% 9 76.71 0.0
02 08:15 NE 11 16.09 Fair CLR 9 2 62% 8 76.68 0.0
02 07:55 NE 6 16.09 Fair CLR 8 3 71% 76.66 0.0
02 07:35 Calm 16.09 Fair CLR 7 3 76% 76.66 0.0
02 07:15 NE 9 16.09 Fair CLR 5 2 81% 3 76.63 0.0
02 06:55 NE 7 16.09 Fair CLR 3 1 87% 1 76.61 0.0
02 06:35 NE 7 16.09 Fair CLR 4 1 81% 2 76.61 0.0
02 06:15 NE 9 16.09 Fair CLR 5 1 76% 3 76.58 0.0
02 05:55 NE 6 16.09 Fair CLR 7 1 66% 76.58 0.0
02 05:35 NE 7 16.09 Fair CLR 7 1 66% 6 76.58 0.0
02 05:15 Calm 16.09 Fair CLR 5 1 76% 76.58 0.0
02 04:55 NE 11 16.09 Fair CLR 6 1 71% 4 76.56 0.0
02 04:35 NE 9 16.09 Fair CLR 6 1 71% 4 76.53 0.0
02 04:15 NE 11 16.09 Fair CLR 6 2 76% 4 76.53 0.0
02 03:55 NE 9 16.09 Fair CLR 7 2 71% 5 76.53 0.0
02 03:35 NE 7 16.09 Fair CLR 7 2 71% 6 76.53 0.0
02 03:15 NE 7 16.09 Fair CLR 8 3 71% 7 76.5 0.0
02 02:55 NE 13 16.09 Fair CLR 10 5 71% 8 76.5 0.0
02 02:35 N 13 16.09 Partly Cloudy SCT065 11 7 77% 76.53 0.0
02 02:15 W 9 16.09 Mostly Cloudy SCT070 SCT075 BKN100 11 7 77% 76.5 0.0
02 01:55 W 13 16.09 Light Rain SCT050 BKN070 OVC090 11 7 77% 76.5 0.0
02 01:35 Calm 16.09 Overcast SCT080 OVC090 12 6 67% 76.5 0.0
02 01:15 S 7 16.09 Mostly Cloudy SCT060 SCT070 BKN090 12 4 58% 76.5 0.0
02 00:55 N 15 16.09 Light Rain BKN065 BKN070 OVC090 12 7 72% 76.53 0.0
02 00:35 W 6 16.09 Overcast OVC090 12 7 72% 76.58 0.0
02 00:15 Calm 16.09 Overcast OVC100 12 6 67% 76.48 0.0
01 23:55 Calm 16.09 Overcast BKN100 OVC110 12 6 67% 76.48 0.0
01 23:35 Calm 16.09 Overcast OVC100 12 6 67% 76.45 0.0
01 23:15 S 6 16.09 Mostly Cloudy BKN100 BKN120 12 6 67% 76.45 0.0
01 22:55 S 6 16.09 Overcast BKN100 OVC120 12 6 67% 76.48 0.0
01 22:35 Calm 16.09 Overcast BKN090 OVC110 13 6 63% 76.48 0.0
01 22:15 S 7 16.09 Overcast OVC090 13 7 67% 76.43 0.0
01 21:55 S 6 16.09 Overcast OVC080 13 6 63% 76.43 0.0
01 21:35 Calm 16.09 Overcast BKN080 OVC110 13 7 67% 76.43 0.0
01 21:15 S 9 16.09 Overcast SCT080 OVC110 13 7 67% 76.4 0.0
01 20:55 Calm 16.09 Overcast OVC080 13 6 63% 76.4 0.0
01 20:35 N 7 16.09 Overcast OVC085 13 6 63% 76.38 0.0
01 20:15 NE 13 16.09 Light Rain OVC080 14 5 55% 76.35 0.0
01 19:55 N 13 16.09 Overcast BKN080 OVC090 14 5 55% 76.38 0.0
01 19:35 N 20 16.09 Light Rain SCT070 OVC080 15 5 51% 76.33 0.0
01 19:15 N 15 16.09 Overcast OVC090 15 4 48% 76.33 0.0
01 18:55 N 19 16.09 Overcast OVC100 16 3 42% 76.33 0.0
01 18:35 N 22 G 33 16.09 Mostly Cloudy SCT085 BKN110 16 2 39% 76.3 0.0
01 18:15 N 24 G 30 16.09 Overcast OVC085 17 2 37% 76.3 0.0
01 17:55 N 15 16.09 Overcast BKN095 OVC110 18 0 30% 76.28 0.0
01 17:35 N 15 G 28 16.09 Mostly Cloudy BKN110 20 -1 24% 76.28 0.0
01 17:15 NW 6 16.09 Partly Cloudy SCT090 SCT120 19 -1 26% 76.28 0.0
01 16:55 N 6 16.09 Partly Cloudy SCT090 SCT110 20 -1 24% 76.28 0.0
01 16:35 NE 7 16.09 Mostly Cloudy BKN090 20 -1 24% 76.28 0.0
01 16:15 NE 13 16.09 Overcast OVC090 19 0 28% 76.3 0.0
01 15:55 NW 15 16.09 Overcast OVC090 19 -1 26% 76.3 0.0
01 15:35 NW 9 16.09 Overcast OVC100 20 -2 23% 76.35 0.0
01 15:15 N 9 11.27 Partly Cloudy SCT100 20 -2 23% 76.38 0.0
01 14:55 Calm 16.09 Partly Cloudy SCT100 20 -3 21% 76.4 0.0
01 14:35 N 6 16.09 Partly Cloudy SCT100 20 -3 21% 76.43 0.0
01 14:15 W 15 16.09 Partly Cloudy SCT090 20 -2 23% 76.43 0.0
01 13:55 Calm 16.09 Partly Cloudy SCT090 19 -3 22% 76.45 0.0
01 13:35 NW 6 16.09 Partly Cloudy SCT090 20 -2 23% 76.45 0.0
01 12:55 N 6 16.09 Fair CLR 19 -4 21% 76.48 0.0
01 12:35 W 6 16.09 Fair CLR 18 -4 22% 76.48 0.0
01 12:15 NW 9 16.09 Fair CLR 18 -4 22% 76.48 0.0
01 11:55 Calm 16.09 Fair CLR 18 -7 18% 76.5 0.0
01 11:35 Calm 16.09 Fair CLR 17 -2 27% 76.5 0.0
01 11:15 Calm 16.09 Fair CLR 17 -2 27% 76.5 0.0
01 10:55 Calm 16.09 Fair CLR 17 -1 30% 76.5 0.0
01 10:35 Calm 16.09 Fair CLR 16 0 34% 76.5 0.0
01 10:15 Calm 16.09 Fair CLR 15 0 36% 76.5 0.0
01 09:55 Calm 16.09 Fair CLR 15 1 39% 76.5 0.0
01 09:35 SE 7 16.09 Fair CLR 15 2 42% 76.5 0.0
01 09:15 SE 11 16.09 Fair CLR 13 3 51% 76.5 0.0
01 08:55 E 9 16.09 Fair CLR 12 3 54% 76.5 0.0
01 08:35 E 7 16.09 Fair CLR 11 5 67% 76.53 0.0
01 08:15 NE 7 16.09 Fair CLR 10 5 71% 9 76.53 0.0
01 07:55 NE 6 16.09 Fair CLR 8 5 82% 76.5 0.0
01 07:35 NE 6 16.09 Fair CLR 6 5 93% 76.53 0.0
01 07:15 Calm 16.09 Fair CLR 5 3 87% 76.48 0.0
01 06:55 Calm 16.09 Fair CLR 4 2 87% 76.48 0.0
01 06:35 Calm 16.09 Fair CLR 5 3 87% 76.48 0.0
01 06:15 Calm 16.09 Fair CLR 5 3 87% 76.48 0.0
01 05:55 Calm 16.09 Fair CLR 4 2 87% 76.48 0.0
01 05:35 NE 7 16.09 Fair CLR 5 2 81% 4 76.48 0.0
01 05:15 E 6 16.09 Fair CLR 5 3 87% 76.48 0.0
01 04:55 NE 6 16.09 Fair CLR 6 3 81% 76.48 0.0
01 04:35 Calm 16.09 Fair CLR 5 3 87% 76.5 0.0
01 04:15 NE 9 16.09 Fair CLR 5 2 81% 3 76.48 0.0
01 03:55 NE 9 16.09 Fair CLR 5 2 81% 3 76.48 0.0
01 03:35 NE 7 16.09 Fair CLR 6 3 81% 5 76.48 0.0
01 03:15 NE 9 16.09 Fair CLR 6 3 81% 4 76.48 0.0
01 02:55 NE 9 16.09 Fair CLR 6 3 81% 4 76.48 0.0
01 02:35 NE 11 16.09 Fair CLR 7 4 81% 5 76.48 0.0
01 02:15 NE 9 16.09 Fair CLR 8 5 82% 7 76.48 0.0
01 01:55 NE 11 16.09 Partly Cloudy SCT090 8 5 82% 6 76.48 0.0
01 01:35 NE 13 16.09 Mostly Cloudy BKN090 10 6 76% 8 76.48 0.0
01 01:15 NE 13 16.09 Overcast OVC090 10 7 82% 8 76.5 0.0
01 00:55 NE 9 16.09 Overcast OVC090 10 7 82% 9 76.48 0.0
01 00:35 NE 9 16.09 Partly Cloudy SCT090 9 6 82% 8 76.48 0.0
01 00:15 NE 9 16.09 Fair CLR 10 6 76% 9 76.45 0.0
30 23:55 N 9 16.09 Fair CLR 9 7 87% 8 76.45 0.0
30 23:35 N 9 16.09 Fair CLR 9 7 87% 8 76.45 0.0
30 23:15 N 11 16.09 Fair CLR 10 7 82% 9 76.43 0.0
30 22:55 N 7 16.09 Fair CLR 11 8 82% 76.43 0.0
30 22:35 N 7 16.09 Partly Cloudy SCT095 11 8 82% 76.43 0.0
30 22:15 N 6 16.09 Mostly Cloudy BKN095 12 8 77% 76.43 0.0
30 21:55 N 6 16.09 Mostly Cloudy BKN095 12 8 77% 76.4 0.0
30 21:35 N 9 16.09 Overcast OVC095 12 8 77% 76.35 0.0
30 21:15 N 7 16.09 Overcast OVC095 13 8 72% 76.35 0.0
30 20:55 N 6 16.09 Overcast SCT075 OVC085 13 8 72% 76.33 0.0
30 20:35 N 6 16.09 Overcast SCT065 OVC085 13 8 72% 76.33 0.0
30 20:15 Calm 16.09 Overcast SCT055 BKN065 OVC080 15 7 59% 76.33 0.0
30 19:55 NW 6 16.09 Overcast SCT055 SCT065 OVC090 15 7 59% 76.33 0.0
30 19:35 N 11 16.09 Overcast SCT050 OVC090 15 6 55% 76.3 0.0
30 19:15 N 15 16.09 Mostly Cloudy SCT050 BKN090 16 7 55% 76.3 0.0
30 18:55 N 20 16.09 Partly Cloudy SCT090 16 7 55% 76.3 0.0
30 18:35 NW 11 16.09 Mostly Cloudy BKN090 17 6 49% 76.3 0.0
30 18:15 N 15 16.09 Mostly Cloudy SCT090 BKN110 17 6 49% 76.28 0.0
30 17:55 NW 13 16.09 Overcast SCT090 OVC110 18 7 49% 76.28 0.0
30 17:35 NW 11 16.09 Mostly Cloudy BKN090 18 7 49% 76.28 0.0
30 17:15 NW 17 16.09 Mostly Cloudy SCT050 SCT070 BKN090 18 6 46% 76.28 0.0
30 16:55 NW 11 G 26 16.09 Partly Cloudy SCT050 SCT080 19 6 43% 76.28 0.0
30 16:35 NW 19 16.09 Mostly Cloudy SCT055 SCT080 BKN120 19 6 43% 76.28 0.0
30 16:15 NW 17 16.09 Partly Cloudy SCT070 SCT080 19 5 40% 76.3 0.0
30 15:55 N 17 G 26 16.09 Partly Cloudy SCT070 19 5 40% 76.3 0.0
30 15:35 NW 13 16.09 Fair CLR 18 5 43% 76.33 0.0
30 15:15 NW 9 16.09 Mostly Cloudy SCT070 BKN090 18 4 40% 76.35 0.0
30 14:55 NW 13 16.09 Overcast SCT080 OVC100 18 4 40% 76.38 0.0
30 14:35 NW 15 16.09 Overcast OVC110 17 3 39% 76.38 0.0
30 14:15 NW 15 16.09 Mostly Cloudy SCT060 BKN110 17 1 34% 76.4 0.0
30 13:55 NW 13 16.09 Overcast BKN060 BKN070 OVC085 18 4 40% 76.4 0.0
30 13:35 W 9 16.09 Mostly Cloudy BKN060 BKN085 BKN120 18 3 37% 76.4 0.0
30 13:15 NW 9 16.09 Partly Cloudy SCT060 SCT120 18 4 40% 76.4 0.0
30 12:55 W 11 16.09 Partly Cloudy SCT060 SCT120 18 4 40% 76.43 0.0
30 12:35 W 13 16.09 Mostly Cloudy SCT060 BKN120 18 5 43% 76.43 0.0
30 12:15 Calm 16.09 Fair CLR 18 5 43% 76.45 0.0
30 11:55 Calm 16.09 Fair CLR 18 5 43% 76.48 0.0
30 11:35 W 9 16.09 Fair CLR 18 6 46% 76.48 0.0
30 11:15 Calm 16.09 Fair CLR 17 6 49% 76.48 0.0
30 10:55 Calm 16.09 Fair CLR 16 5 48% 76.48 0.0
30 10:35 Calm 16.09 Partly Cloudy SCT095 16 6 52% 76.5 0.0
30 10:15 Calm 16.09 Fair CLR 16 6 52% 76.53 0.0
30 09:55 Calm 16.09 Partly Cloudy SCT110 14 6 59% 76.53 0.0
30 09:35 Calm 16.09 Partly Cloudy SCT110 13 7 67% 76.53 0.0
30 09:15 Calm 16.09 Partly Cloudy SCT120 12 7 72% 76.53 0.0
30 08:55 Calm 16.09 Partly Cloudy SCT110 12 8 77% 76.53 0.0
30 08:35 Calm 16.09 Overcast OVC095 11 7 77% 76.53 0.0
30 08:15 Calm 16.09 Overcast OVC095 10 7 82% 76.5 0.0
30 07:55 Calm 16.09 Overcast OVC095 9 7 87% 76.5 0.0
30 07:35 Calm 16.09 Partly Cloudy SCT095 SCT120 9 7 87% 76.48 0.0
30 07:15 Calm 16.09 Fair CLR 8 6 87% 76.45 0.0
30 06:55 Calm 16.09 Fair CLR 7 5 87% 76.43 0.0
30 06:35 SE 6 16.09 Fair CLR 7 5 87% 76.4 0.0
30 06:15 Calm 16.09 Fair CLR 6 4 87% 76.43 0.0
30 05:55 Calm 16.09 Fair CLR 6 3 81% 76.45 0.0
30 05:35 E 6 16.09 Fair CLR 6 4 87% 76.4 0.0
30 05:15 E 7 16.09 Fair CLR 6 4 87% 5 76.38 0.0
30 04:55 E 9 16.09 Fair CLR 6 3 81% 4 76.4 0.0
30 04:35 E 7 16.09 Fair CLR 6 3 81% 5 76.4 0.0
30 04:15 E 6 16.09 Fair CLR 6 4 87% 76.43 0.0
30 03:55 E 6 16.09 Fair CLR 6 5 93% 76.43 0.0
30 03:35 Calm 16.09 Fair CLR 6 4 87% 76.45 0.0
30 03:15 Calm 16.09 Fair CLR 6 3 81% 76.45 0.0
30 02:55 Calm 16.09 Fair CLR 6 4 87% 76.43 0.0
30 02:35 E 7 16.09 Fair CLR 7 4 81% 6 76.45 0.0
30 02:15 Calm 16.09 Fair CLR 7 5 87% 76.48 0.0
30 01:55 SE 6 16.09 Fair CLR 7 5 87% 76.48 0.0
30 01:35 E 7 16.09 Fair CLR 8 5 82% 7 76.45 0.0
30 01:15 E 7 16.09 Fair CLR 8 5 82% 7 76.45 0.0
30 00:55 E 11 16.09 Fair CLR 8 5 82% 6 76.45 0.0
30 00:35 E 13 16.09 Fair CLR 8 5 82% 6 76.48 0.0
30 00:15 E 11 16.09 Fair CLR 8 5 82% 6 76.48 0.0
29 23:55 NE 7 16.09 Fair CLR 9 5 76% 8 76.48 0.0
29 23:35 E 11 16.09 Fair CLR 10 5 71% 9 76.48 0.0
29 23:15 NE 9 16.09 Fair CLR 10 5 71% 9 76.48 0.0
29 22:55 NE 11 16.09 Partly Cloudy SCT120 10 6 76% 9 76.48 0.0
29 22:35 NE 7 16.09 Overcast OVC120 11 6 72% 76.48 0.0
29 22:15 E 9 16.09 Overcast OVC110 12 6 67% 76.48 0.0
29 21:55 E 9 16.09 Overcast OVC110 12 6 67% 76.45 0.0
29 21:35 NE 9 16.09 Mostly Cloudy BKN110 11 6 72% 76.43 0.0
29 21:15 NE 7 16.09 Mostly Cloudy BKN110 12 6 67% 76.4 0.0
29 20:55 E 7 16.09 Mostly Cloudy BKN120 12 6 67% 76.4 0.0
29 20:35 NE 9 16.09 Mostly Cloudy BKN110 12 6 67% 76.38 0.0
29 20:15 E 9 16.09 Fair CLR 12 5 63% 76.35 0.0
29 19:55 E 11 16.09 Partly Cloudy SCT120 14 5 55% 76.33 0.0
29 19:35 NE 11 16.09 Partly Cloudy SCT120 16 5 48% 76.33 0.0
29 19:15 NE 13 16.09 Mostly Cloudy BKN120 16 4 45% 76.33 0.0
29 18:55 NE 17 16.09 Fair CLR 17 3 39% 76.33 0.0
29 18:35 NE 17 16.09 Fair CLR 17 3 39% 76.33 0.0
29 18:15 NE 20 16.09 Fair CLR 17 4 42% 76.33 0.0
29 17:55 NE 15 16.09 Partly Cloudy SCT120 17 4 42% 76.33 0.0
29 17:35 N 19 16.09 Fair CLR 18 4 40% 76.33 0.0
29 17:15 NE 19 G 30 16.09 Fair CLR 18 5 43% 76.33 0.0
29 16:55 NE 13 G 28 16.09 Fair CLR 18 5 43% 76.33 0.0
29 16:35 NE 15 G 26 16.09 Partly Cloudy SCT120 18 5 43% 76.35 0.0
29 16:15 NE 17 16.09 Partly Cloudy SCT120 18 4 40% 76.35 0.0
29 15:55 NE 20 G 31 16.09 Fair CLR 18 5 43% 76.38 0.0
29 15:35 NE 22 G 28 16.09 Fair CLR 18 6 46% 76.4 0.0
29 15:15 N 13 16.09 Fair CLR 17 6 49% 76.45 0.0
29 14:55 NE 13 16.09 Fair CLR 17 6 49% 76.48 0.0
Date Time (cdt) Wind (kph) Vis. (km) Weather Sky Cond. Air Dwpt Max. Min. Relative Humidity Wind Chill (°C) Heat Index (°C) altimeter (cm) sea level (mb) 1 hr 3 hr 6 hr
6 hour
Temperature (ºC) Pressure Precipitation (cm)